GMAD/AGA METAR and TAF weather

Enter ICAO airport designator
Station Type Date Time Source
GMAD METAR 2018/04/19 13:00 UTC NOAA

GMAD 191300Z 27014KT 8000 NSC 26/14 Q1012 NOSIG


Station Type Date Time Source
GMAD Decoded METAR 2018/04/19 13:00 UTC NOAA

Agadir Al Massira, Morocco (GMAD) 30-20N 009-24W 74M
Apr 19, 2018 - 09:00 AM EDT / 2018.04.19 1300 UTC
Wind: from the W (270 degrees) at 16 MPH (14 KT):0
Visibility: 4 mile(s):0
Temperature: 78 F (26 C)
Dew Point: 57 F (14 C)
Relative Humidity: 47%
Pressure (altimeter): 29.88 in. Hg (1012 hPa)
ob: GMAD 191300Z 27014KT 8000 NSC 26/14 Q1012 NOSIG
cycle: 13

Station Type Date Time Source
GMAD TAF 2018/04/19 12:18 UTC NOAA

TAF GMAD 191100Z 1912/2018 06008KT CAVOK


Example: see airport list